• Join FlightAware (Why Join?)
  • Login
  • US Flag 
02:49PM EDT


 

Airport Tracker/Info


-or-


 

Live Flight TrackerFlight Track Log ✈ ASH3774 ✈ 10-Apr-2012 ✈ KORD - KATL

Flight Track Log - Related Links

Times and Time Zones

All times are in EDT time to prevent confusion due to time zone crossing. See the ASH3774 flight status page for this flight to view local times or setup timezone preferences in your user account.

Time Position Orientation Groundspeed Altitude Reporting Facility
EDT Latitude Longitude Course Direction KTS MPH feet Rate Location/Type
04:06PM 41.9500 -87.9333 191° South 195 224 3,100  Level Chicago TRACON
04:07PM 41.8833 -87.9500 158° South 242 278 4,900 2,280 Climbing Chicago TRACON
04:08PM 41.7994 -87.9044 157° South 259 298 8,200 2,640 Climbing Chicago Center
04:09PM 41.7197 -87.8589 182° South 286 329 10,700 2,460 Climbing Chicago Center
04:10PM 41.6300 -87.8636 183° South 299 344 13,200 2,100 Climbing Chicago Center
04:11PM 41.5322 -87.8714 182° South 330 380 15,000 1,800 Climbing Chicago Center
04:12PM 41.4467 -87.8761 184° South 357 411 16,800 1,800 Climbing Chicago Center
04:13PM 41.3281 -87.8872 182° South 380 437 18,600 1,860 Climbing Chicago Center
04:14PM 41.2133 -87.8925 179° South 406 467 20,600 1,680 Climbing Chicago Center
04:15PM 41.0947 -87.8897 179° South 418 481 22,000 1,380 Climbing Chicago Center
04:16PM 40.9675 -87.8869 178° South 442 509 23,400 1,440 Climbing Chicago Center
04:17PM 40.8381 -87.8817 178° South 455 524 24,900 1,500 Climbing Chicago Center
04:18PM 40.7086 -87.8764 179° South 467 537 26,500 1,500 Climbing Chicago Center
04:19PM 40.5733 -87.8739 178° South 472 543 28,000 1,260 Climbing Chicago Center
04:20PM 40.4417 -87.8686 181° South 478 550 29,100 960 Climbing Chicago Center
04:21PM 40.3289 -87.8703 177° South 480 552 29,700 840 Climbing Indianapolis Center
04:22PM 40.1978 -87.8622 179° South 509 586 30,600 900 Climbing Indianapolis Center
04:23PM 40.0583 -87.8589 178° South 509 586 31,600 900 Climbing Indianapolis Center
04:24PM 39.9147 -87.8528 176° South 515 593 32,500 900 Climbing Indianapolis Center
04:25PM 39.7775 -87.8417 166° South 515 593 33,400 900 Climbing Indianapolis Center
04:26PM 39.6353 -87.7953 166° South 521 600 34,300 900 Climbing Indianapolis Center
04:27PM 39.4950 -87.7492 166° South 526 605 35,200 900 Climbing Indianapolis Center
04:28PM 39.3425 -87.7000 166° South 521 600 36,200 900 Climbing Indianapolis Center
04:29PM 39.2064 -87.6547 166° South 521 600 37,000 360 Climbing Indianapolis Center
04:30PM 39.0619 -87.6089 165° South 521 600 37,000  Level Indianapolis Center
04:31PM 38.9197 -87.5608 166° South 526 605 37,000  Level Indianapolis Center
04:32PM 38.7939 -87.5192 165° South 526 605 37,000  Level Indianapolis Center
04:33PM 38.6517 -87.4717 166° South 526 605 37,000  Level Indianapolis Center
04:34PM 38.5069 -87.4267 166° South 526 605 37,000  Level Indianapolis Center
04:35PM 38.3458 -87.3756 166° South 535 616 37,000  Level Indianapolis Center
04:36PM 38.2014 -87.3286 166° South 540 621 37,000  Level Indianapolis Center
04:37PM 38.0569 -87.2814 166° South 545 627 37,000  Level Indianapolis Center
04:38PM 37.8147 -87.2075 165° South 554 638 37,000  Level Memphis Center
04:39PM 37.6675 -87.1583 167° South 548 631 37,000  Level Memphis Center
04:40PM 37.5206 -87.1147 166° South 548 631 37,000  Level Memphis Center
04:41PM 37.3736 -87.0686 165° South 548 631 37,000  Level Memphis Center
04:42PM 37.2267 -87.0200 166° South 543 625 37,000  Level Memphis Center
04:43PM 37.0794 -86.9742 167° South 543 625 37,000  Level Memphis Center
04:44PM 36.9344 -86.9308 166° South 548 631 37,000  Level Memphis Center
04:45PM 36.7875 -86.8856 166° South 541 623 37,000 -180 Level Memphis Center
04:46PM 36.6569 -86.8444 156° South 541 623 36,700 -660 Descending Memphis Center
04:47PM 36.5172 -86.7681 152° Southeast 541 623 35,700 -1,020 Descending Memphis Center
04:48PM 36.3769 -86.6736 153° Southeast 560 644 34,700 -1,080 Descending Memphis Center
04:49PM 36.2239 -86.5778 152° Southeast 566 651 33,600 -900 Descending Memphis Center
04:50PM 36.0878 -86.4889 152° Southeast 566 651 33,000 -300 Descending Memphis Center
04:51PM 35.9494 -86.3981 152° Southeast 566 651 33,000  Level Memphis Center
04:53PM 35.7192 -86.2486 152° Southeast 551 634 33,000  Level Atlanta Center
04:54PM 35.5831 -86.1608 153° Southeast 551 634 33,000  Level Atlanta Center
04:55PM 35.4489 -86.0758 151° Southeast 551 634 33,000 -240 Level Atlanta Center
04:56PM 35.3128 -85.9833 153° Southeast 551 634 32,600 -780 Descending Atlanta Center
04:57PM 35.1742 -85.8986 151° Southeast 556 640 31,500 -1,200 Descending Atlanta Center
04:58PM 35.0400 -85.8069 147° Southeast 551 634 30,200 -1,200 Descending Atlanta Center
04:59PM 34.9100 -85.7053 147° Southeast 551 634 29,100 -1,320 Descending Atlanta Center
05:00PM 34.7839 -85.6042 147° Southeast 551 634 27,600 -1,800 Descending Atlanta Center
05:01PM 34.6619 -85.5086 148° Southeast 539 620 25,600 -2,100 Descending Atlanta Center
05:02PM 34.5442 -85.4183 147° Southeast 521 600 23,500 -2,160 Descending Atlanta Center
05:03PM 34.4325 -85.3308 147° Southeast 501 577 21,300 -2,280 Descending Atlanta Center
05:04PM 34.3247 -85.2461 148° Southeast 469 540 19,000 -2,280 Descending Atlanta Center
05:05PM 34.2253 -85.1719 141° Southeast 444 511 16,800 -2,220 Descending Atlanta Center
05:06PM 34.1342 -85.0828 133° Southeast 428 493 14,600 -1,440 Descending Atlanta Center
05:07PM 34.0558 -84.9817 133° Southeast 417 480 14,000 -360 Descending Atlanta Center
05:08PM 33.9772 -84.8806 135° Southeast 407 468 14,000 -420 Level Atlanta Center
05:09PM 33.8983 -84.7847 143° Southeast 407 468 13,200 -1,020 Descending Atlanta Center
05:10PM 33.8092 -84.7039 154° Southeast 412 474 12,000 -600 Descending Atlanta Center
05:11PM 33.7114 -84.6456 154° Southeast 399 459 12,000  Level Atlanta Center
05:12PM 33.6261 -84.5953 152° Southeast 362 417 12,000 -300 Level Atlanta Center
05:13PM 33.5594 -84.5522 101° East 297 342 11,400 -1,380 Descending Atlanta Center
05:14PM 33.5450 -84.4625 87° East 244 281 9,300 -1,980 Descending Atlanta Center
05:15PM 33.5500 -84.3333 76° East 255 293 6,600 -1,920 Descending Atlanta TRACON
05:16PM 33.5667 -84.2500 344° North 251 289 4,600 -1,800 Descending Atlanta TRACON
05:17PM 33.6167 -84.2667 292° West 217 250 3,000 -1,020 Descending Atlanta TRACON
05:18PM 33.6333 -84.3167 270° West 179 206 2,600 -600 Descending Atlanta TRACON
05:19PM 33.6333 -84.3667 270° West 130 150 1,800 -840 Descending Atlanta TRACON